Time;durP1;ratioP1;P1;durP2;ratioP2;P2;SDS_P1;SDS_P2;PMS_P1;PMS_P2;Temp;Humidity;BMP_temperature;BMP_pressure;BME280_temperature;BME280_humidity;BME280_pressure;Samples;Min_cycle;Max_cycle;Signal;HPM_P1;HPM_P2
2023/08/19 00:02:10;;;;;;;0.10;0.10;;;;;;;;;;6225199;22;20023;-95
2023/08/19 00:04:36;;;;;;;0.20;0.20;;;;;;;;;;6226781;22;20012;-93
2023/08/19 00:07:03;;;;;;;0.10;0.10;;;;;;;;;;6226565;22;20043;-94
2023/08/19 00:09:34;;;;;;;0.10;0.10;;;;;;;;;;6203348;22;20016;-92
2023/08/19 00:15:24;;;;;;;0.05;0.05;;;;;;;;;;6259690;23;20015;-90
2023/08/19 00:17:50;;;;;;;0.10;0.10;;;;;;;;;;6221381;22;20023;-91
2023/08/19 00:20:17;;;;;;;0.00;0.00;;;;;;;;;;6224877;22;20454;-91
2023/08/19 00:22:43;;;;;;;0.10;0.10;;;;;;;;;;6224264;22;20100;-93
2023/08/19 00:25:09;;;;;;;0.10;0.10;;;;;;;;;;6227091;22;20020;-93
2023/08/19 00:27:37;;;;;;;0.03;0.03;;;;;;;;;;6225533;22;20096;-92
2023/08/19 00:30:05;;;;;;;0.00;0.00;;;;;;;;;;6226267;22;20020;-94
2023/08/19 00:32:31;;;;;;;0.10;0.10;;;;;;;;;;6198215;22;20069;-92
2023/08/19 00:34:57;;;;;;;0.10;0.10;;;;;;;;;;6222085;22;20021;-93
2023/08/19 00:37:23;;;;;;;0.10;0.10;;;;;;;;;;6220903;22;20042;-93
2023/08/19 00:39:49;;;;;;;0.10;0.10;;;;;;;;;;6245951;22;20020;-92
2023/08/19 00:42:15;;;;;;;0.13;0.13;;;;;;;;;;6220722;22;20509;-91
2023/08/19 00:44:41;;;;;;;0.10;0.10;;;;;;;;;;6220991;22;20133;-94
2023/08/19 00:47:08;;;;;;;0.00;0.00;;;;;;;;;;6221074;22;20501;-92
2023/08/19 00:49:34;;;;;;;0.10;0.10;;;;;;;;;;6220102;22;20091;-90
2023/08/19 00:52:02;;;;;;;0.00;0.00;;;;;;;;;;6220610;22;20016;-94
2023/08/19 00:54:30;;;;;;;0.10;0.10;;;;;;;;;;6220791;23;20073;-93
2023/08/19 00:56:56;;;;;;;0.20;0.20;;;;;;;;;;6216983;23;20058;-91
2023/08/19 00:59:22;;;;;;;0.20;0.20;;;;;;;;;;6219561;22;20031;-91
2023/08/19 01:01:48;;;;;;;0.10;0.10;;;;;;;;;;6195265;22;20346;-92
2023/08/19 01:04:14;;;;;;;0.10;0.10;;;;;;;;;;6224268;22;20012;-93
2023/08/19 01:07:10;;;;;;;0.10;0.10;;;;;;;;;;6225908;22;20016;-92
2023/08/19 01:09:54;;;;;;;0.10;0.10;;;;;;;;;;6228030;22;20026;-91
2023/08/19 01:12:40;;;;;;;0.10;0.10;;;;;;;;;;6197769;23;20020;-92
2023/08/19 01:15:07;;;;;;;0.20;0.20;;;;;;;;;;6197751;23;20020;-92
2023/08/19 01:17:34;;;;;;;0.20;0.20;;;;;;;;;;6199210;23;20015;-93
2023/08/19 01:20:01;;;;;;;0.10;0.10;;;;;;;;;;6200764;23;20020;-92
2023/08/19 01:22:42;;;;;;;0.10;0.10;;;;;;;;;;6175026;23;20055;-92
2023/08/19 01:25:10;;;;;;;0.10;0.10;;;;;;;;;;6197428;23;20017;-91
2023/08/19 01:27:36;;;;;;;0.10;0.10;;;;;;;;;;6197479;23;20012;-92
2023/08/19 01:30:02;;;;;;;0.03;0.03;;;;;;;;;;6200173;23;20069;-91
2023/08/19 01:32:29;;;;;;;0.10;0.10;;;;;;;;;;6173161;23;20052;-92
2023/08/19 01:34:57;;;;;;;0.10;0.10;;;;;;;;;;6197874;23;20075;-92
2023/08/19 01:37:36;;;;;;;0.10;0.10;;;;;;;;;;6196437;23;20019;-91
2023/08/19 01:40:04;;;;;;;0.03;0.03;;;;;;;;;;6196851;23;20040;-93
2023/08/19 01:42:31;;;;;;;0.20;0.20;;;;;;;;;;6196753;23;20396;-93
2023/08/19 01:44:58;;;;;;;0.10;0.10;;;;;;;;;;6198070;23;20012;-93
2023/08/19 01:47:27;;;;;;;0.08;0.08;;;;;;;;;;6222191;23;20036;-91
2023/08/19 01:49:53;;;;;;;0.20;0.20;;;;;;;;;;6198178;23;20024;-91
2023/08/19 01:52:22;;;;;;;0.10;0.10;;;;;;;;;;6195987;23;20026;-90
2023/08/19 01:54:50;;;;;;;0.10;0.10;;;;;;;;;;6195781;23;20024;-93
2023/08/19 01:57:16;;;;;;;0.20;0.20;;;;;;;;;;6193897;23;20044;-90
2023/08/19 01:59:42;;;;;;;0.20;0.20;;;;;;;;;;6193334;22;20023;-91
2023/08/19 02:02:08;;;;;;;0.10;0.10;;;;;;;;;;6196183;23;20012;-90
2023/08/19 02:04:34;;;;;;;0.10;0.10;;;;;;;;;;6195371;23;20016;-91
2023/08/19 02:07:00;;;;;;;0.10;0.10;;;;;;;;;;6192927;23;20012;-92
2023/08/19 02:09:28;;;;;;;0.10;0.10;;;;;;;;;;6196252;22;20050;-91
2023/08/19 02:11:57;;;;;;;0.10;0.10;;;;;;;;;;6245124;23;20012;-93
2023/08/19 02:14:24;;;;;;;0.00;0.00;;;;;;;;;;6219473;22;20480;-90
2023/08/19 02:16:50;;;;;;;0.17;0.17;;;;;;;;;;6195130;22;20016;-92
2023/08/19 02:19:16;;;;;;;0.10;0.10;;;;;;;;;;6222508;22;20027;-91
2023/08/19 02:21:43;;;;;;;0.20;0.20;;;;;;;;;;6220750;22;20016;-91
2023/08/19 02:24:09;;;;;;;0.10;0.10;;;;;;;;;;6246213;22;20008;-92
2023/08/19 02:26:36;;;;;;;0.10;0.10;;;;;;;;;;6219576;22;20023;-90
2023/08/19 02:29:03;;;;;;;0.20;0.20;;;;;;;;;;6220119;22;20016;-91
2023/08/19 02:31:29;;;;;;;0.10;0.10;;;;;;;;;;6221211;22;20081;-91
2023/08/19 02:33:55;;;;;;;0.20;0.20;;;;;;;;;;6219799;22;20016;-90
2023/08/19 02:36:21;;;;;;;0.15;0.15;;;;;;;;;;6220673;22;20407;-91
2023/08/19 02:38:47;;;;;;;0.10;0.10;;;;;;;;;;6222617;22;20054;-92
2023/08/19 02:41:13;;;;;;;0.20;0.20;;;;;;;;;;6221861;22;20042;-91
2023/08/19 02:43:39;;;;;;;0.10;0.10;;;;;;;;;;6219590;22;20040;-92
2023/08/19 02:46:05;;;;;;;0.00;0.00;;;;;;;;;;6221375;22;20017;-89
2023/08/19 02:48:31;;;;;;;0.10;0.10;;;;;;;;;;6245143;22;20375;-90
2023/08/19 02:50:59;;;;;;;0.22;0.22;;;;;;;;;;6220176;22;20020;-91
2023/08/19 02:53:25;;;;;;;0.08;0.08;;;;;;;;;;6218514;22;20020;-91
2023/08/19 02:55:52;;;;;;;0.17;0.17;;;;;;;;;;6218724;22;20016;-92
2023/08/19 02:58:19;;;;;;;0.10;0.10;;;;;;;;;;6218046;22;20023;-91
2023/08/19 03:00:46;;;;;;;0.10;0.10;;;;;;;;;;6219403;22;20023;-90
2023/08/19 03:03:12;;;;;;;0.20;0.20;;;;;;;;;;6218878;22;20020;-90
2023/08/19 03:05:39;;;;;;;0.10;0.10;;;;;;;;;;6219731;22;20023;-92
2023/08/19 03:08:05;;;;;;;0.20;0.20;;;;;;;;;;6220149;23;20023;-92
2023/08/19 03:10:39;;;;;;;0.03;0.03;;;;;;;;;;6219435;22;20012;-90
2023/08/19 03:13:05;;;;;;;0.20;0.20;;;;;;;;;;6218186;23;20426;-92
2023/08/19 03:15:32;;;;;;;0.10;0.10;;;;;;;;;;6219376;22;20016;-89
2023/08/19 03:17:58;;;;;;;0.20;0.20;;;;;;;;;;6244732;22;20012;-92
2023/08/19 03:20:26;;;;;;;0.10;0.10;;;;;;;;;;6221244;22;20041;-91
2023/08/19 03:22:55;;;;;;;0.10;0.10;;;;;;;;;;6221464;23;20019;-90
2023/08/19 03:25:23;;;;;;;0.20;0.20;;;;;;;;;;6222016;22;20016;-91
2023/08/19 03:27:49;;;;;;;0.10;0.10;;;;;;;;;;6220407;22;20024;-91
2023/08/19 03:30:15;;;;;;;0.10;0.10;;;;;;;;;;6221099;22;20133;-92
2023/08/19 03:32:41;;;;;;;0.20;0.20;;;;;;;;;;6222397;22;20020;-92
2023/08/19 03:35:07;;;;;;;0.10;0.10;;;;;;;;;;6223288;22;20027;-92
2023/08/19 03:37:33;;;;;;;0.10;0.10;;;;;;;;;;6222470;22;20028;-90
2023/08/19 03:39:59;;;;;;;0.10;0.10;;;;;;;;;;6222209;22;20052;-92
2023/08/19 03:42:25;;;;;;;0.10;0.10;;;;;;;;;;6222494;22;20023;-90
2023/08/19 03:44:53;;;;;;;0.20;0.20;;;;;;;;;;6220921;22;20443;-91
2023/08/19 03:47:20;;;;;;;0.10;0.10;;;;;;;;;;6222251;22;20080;-92
2023/08/19 03:49:47;;;;;;;0.10;0.10;;;;;;;;;;6224031;22;20020;-92
2023/08/19 03:52:16;;;;;;;0.00;0.00;;;;;;;;;;6221800;22;20358;-91
2023/08/19 03:54:42;;;;;;;0.10;0.10;;;;;;;;;;6221277;22;20026;-90
2023/08/19 03:57:08;;;;;;;0.10;0.10;;;;;;;;;;6220840;22;20331;-91
2023/08/19 03:59:35;;;;;;;0.05;0.05;;;;;;;;;;6223119;22;20048;-91
2023/08/19 04:02:01;;;;;;;0.10;0.10;;;;;;;;;;6220404;22;20020;-91
2023/08/19 04:04:27;;;;;;;0.10;0.10;;;;;;;;;;6222323;22;20022;-91
2023/08/19 04:06:53;;;;;;;0.00;0.00;;;;;;;;;;6220556;22;20016;-90
2023/08/19 04:09:19;;;;;;;0.10;0.10;;;;;;;;;;6223974;22;20020;-91
2023/08/19 04:11:49;;;;;;;0.10;0.10;;;;;;;;;;6226009;22;20491;-92
2023/08/19 04:14:15;;;;;;;0.00;0.00;;;;;;;;;;6224829;22;20027;-90
2023/08/19 04:16:44;;;;;;;0.20;0.20;;;;;;;;;;6226171;22;20020;-91
2023/08/19 04:19:11;;;;;;;0.10;0.10;;;;;;;;;;6226451;22;20068;-92
2023/08/19 04:21:38;;;;;;;0.10;0.10;;;;;;;;;;6225458;22;20442;-94
2023/08/19 04:24:07;;;;;;;0.10;0.10;;;;;;;;;;6252441;22;20019;-91
2023/08/19 04:26:33;;;;;;;0.00;0.00;;;;;;;;;;6226570;22;20525;-92
2023/08/19 04:29:01;;;;;;;0.20;0.20;;;;;;;;;;6251382;22;20094;-90
2023/08/19 04:31:27;;;;;;;0.10;0.10;;;;;;;;;;6226261;22;20108;-92
2023/08/19 04:33:53;;;;;;;0.17;0.17;;;;;;;;;;6252747;22;20023;-93
2023/08/19 04:36:19;;;;;;;0.10;0.10;;;;;;;;;;6227731;22;20012;-91
2023/08/19 04:38:46;;;;;;;0.30;0.30;;;;;;;;;;6227168;22;20016;-92
2023/08/19 04:41:12;;;;;;;0.10;0.10;;;;;;;;;;6226463;22;20016;-91
2023/08/19 04:44:01;;;;;;;0.10;0.10;;;;;;;;;;6228712;22;20391;-91
2023/08/19 04:46:27;;;;;;;0.08;0.08;;;;;;;;;;6227651;22;20449;-92
2023/08/19 04:48:53;;;;;;;0.00;0.00;;;;;;;;;;6227520;22;20068;-92
2023/08/19 04:51:19;;;;;;;0.10;0.10;;;;;;;;;;6226954;22;20027;-92
2023/08/19 04:53:46;;;;;;;0.15;0.15;;;;;;;;;;6226982;22;20076;-92
2023/08/19 04:56:13;;;;;;;0.10;0.10;;;;;;;;;;6226083;22;20031;-91
2023/08/19 04:58:44;;;;;;;0.20;0.20;;;;;;;;;;6253034;22;20443;-91
2023/08/19 05:01:10;;;;;;;0.10;0.10;;;;;;;;;;6226660;22;20016;-94
2023/08/19 05:03:37;;;;;;;0.10;0.10;;;;;;;;;;6227768;22;20067;-92
2023/08/19 05:06:03;;;;;;;0.10;0.10;;;;;;;;;;6227094;22;20027;-92
2023/08/19 05:08:29;;;;;;;0.10;0.10;;;;;;;;;;6226216;22;20027;-92
2023/08/19 05:10:55;;;;;;;0.10;0.10;;;;;;;;;;6228079;22;20016;-91
2023/08/19 05:13:22;;;;;;;0.08;0.08;;;;;;;;;;6225527;22;20072;-92
2023/08/19 05:15:48;;;;;;;0.10;0.10;;;;;;;;;;6226483;22;20058;-90
2023/08/19 05:18:14;;;;;;;0.10;0.10;;;;;;;;;;6202267;22;20016;-91
2023/08/19 05:20:41;;;;;;;0.20;0.20;;;;;;;;;;6252251;22;20042;-91
2023/08/19 05:23:07;;;;;;;0.08;0.08;;;;;;;;;;6227010;22;20076;-91
2023/08/19 05:25:33;;;;;;;0.00;0.00;;;;;;;;;;6227468;22;20095;-92
2023/08/19 05:27:59;;;;;;;0.10;0.10;;;;;;;;;;6228166;22;20023;-92
2023/08/19 05:30:25;;;;;;;0.10;0.10;;;;;;;;;;6227970;22;20051;-93
2023/08/19 05:32:51;;;;;;;0.10;0.10;;;;;;;;;;6227266;22;20016;-90
2023/08/19 05:35:17;;;;;;;0.10;0.10;;;;;;;;;;6251599;22;20450;-92
2023/08/19 05:37:43;;;;;;;0.20;0.20;;;;;;;;;;6251423;22;20088;-91
2023/08/19 05:40:09;;;;;;;0.00;0.00;;;;;;;;;;6251637;22;20079;-92
2023/08/19 05:42:35;;;;;;;0.20;0.20;;;;;;;;;;6225278;22;20047;-92
2023/08/19 05:45:03;;;;;;;0.10;0.10;;;;;;;;;;6224819;22;20011;-92
2023/08/19 05:47:29;;;;;;;0.08;0.08;;;;;;;;;;6225261;22;20015;-93
2023/08/19 05:49:55;;;;;;;0.10;0.10;;;;;;;;;;6224939;22;20023;-93
2023/08/19 05:52:23;;;;;;;0.10;0.10;;;;;;;;;;6225033;22;20016;-92
2023/08/19 05:54:49;;;;;;;0.15;0.15;;;;;;;;;;6224842;22;20447;-92
2023/08/19 05:57:15;;;;;;;0.10;0.10;;;;;;;;;;6225758;22;20430;-92
2023/08/19 05:59:42;;;;;;;0.00;0.00;;;;;;;;;;6225531;22;20084;-91
2023/08/19 06:05:14;;;;;;;0.10;0.10;;;;;;;;;;6250075;22;20019;-92
2023/08/19 06:07:41;;;;;;;0.20;0.20;;;;;;;;;;6224984;22;20020;-95
2023/08/19 06:10:08;;;;;;;0.20;0.20;;;;;;;;;;6225296;22;20434;-91
2023/08/19 06:12:35;;;;;;;0.17;0.17;;;;;;;;;;6224143;22;20016;-92
2023/08/19 06:15:02;;;;;;;0.10;0.10;;;;;;;;;;6249558;22;20406;-92
2023/08/19 06:17:28;;;;;;;0.10;0.10;;;;;;;;;;6225858;22;20384;-92
2023/08/19 06:19:54;;;;;;;0.10;0.10;;;;;;;;;;6225129;22;20517;-92
2023/08/19 06:22:20;;;;;;;0.20;0.20;;;;;;;;;;6225056;22;20075;-93
2023/08/19 06:24:46;;;;;;;0.10;0.10;;;;;;;;;;6226167;22;20018;-92
2023/08/19 06:27:12;;;;;;;0.10;0.10;;;;;;;;;;6227154;22;20022;-91
2023/08/19 06:29:39;;;;;;;0.17;0.17;;;;;;;;;;6226620;22;20016;-92
2023/08/19 06:32:06;;;;;;;0.10;0.10;;;;;;;;;;6225752;22;20472;-93
2023/08/19 06:34:32;;;;;;;0.00;0.00;;;;;;;;;;6226963;22;20514;-94
2023/08/19 06:37:01;;;;;;;0.00;0.00;;;;;;;;;;6225807;22;20019;-91
2023/08/19 06:39:27;;;;;;;0.10;0.10;;;;;;;;;;6251686;22;20012;-93
2023/08/19 06:42:00;;;;;;;0.20;0.20;;;;;;;;;;6252302;22;20016;-91
2023/08/19 06:44:31;;;;;;;0.10;0.10;;;;;;;;;;6203098;22;20043;-92
2023/08/19 06:46:57;;;;;;;0.05;0.05;;;;;;;;;;6223011;22;20015;-92
2023/08/19 06:49:24;;;;;;;0.20;0.20;;;;;;;;;;6223589;22;20020;-90
2023/08/19 06:51:53;;;;;;;0.08;0.08;;;;;;;;;;6248645;22;20019;-91
2023/08/19 06:54:19;;;;;;;0.13;0.13;;;;;;;;;;6222920;22;20027;-91
2023/08/19 06:56:45;;;;;;;0.30;0.30;;;;;;;;;;6224265;22;20027;-91
2023/08/19 06:59:13;;;;;;;0.10;0.10;;;;;;;;;;6224198;22;20095;-90
2023/08/19 07:01:40;;;;;;;0.20;0.20;;;;;;;;;;6250139;22;20091;-90
2023/08/19 07:04:07;;;;;;;0.10;0.10;;;;;;;;;;6224763;22;20020;-89
2023/08/19 07:06:33;;;;;;;0.10;0.10;;;;;;;;;;6201839;22;20051;-91
2023/08/19 07:09:05;;;;;;;0.28;0.28;;;;;;;;;;6252401;22;20023;-90
2023/08/19 07:11:32;;;;;;;0.05;0.05;;;;;;;;;;6202598;22;20024;-91
2023/08/19 07:13:59;;;;;;;0.10;0.10;;;;;;;;;;6227725;22;20011;-92
2023/08/19 07:16:27;;;;;;;0.20;0.20;;;;;;;;;;6228219;22;20043;-92
2023/08/19 07:18:58;;;;;;;0.20;0.20;;;;;;;;;;6229090;22;20023;-91
2023/08/19 07:21:26;;;;;;;0.20;0.20;;;;;;;;;;6230218;22;20041;-92
2023/08/19 07:23:54;;;;;;;0.10;0.10;;;;;;;;;;6229586;22;20353;-92
2023/08/19 07:26:52;;;;;;;0.20;0.20;;;;;;;;;;6227994;22;20345;-92
2023/08/19 07:29:18;;;;;;;0.10;0.10;;;;;;;;;;6222190;22;20016;-87
2023/08/19 07:31:44;;;;;;;0.10;0.10;;;;;;;;;;6246371;22;20353;-89
2023/08/19 07:34:39;;;;;;;0.20;0.20;;;;;;;;;;6196341;22;20354;-87
2023/08/19 07:37:06;;;;;;;0.08;0.08;;;;;;;;;;6220759;22;20446;-87
2023/08/19 07:39:47;;;;;;;0.20;0.20;;;;;;;;;;6220456;22;20039;-88
2023/08/19 07:42:15;;;;;;;0.00;0.00;;;;;;;;;;6221410;22;20022;-89
2023/08/19 07:44:41;;;;;;;0.03;0.03;;;;;;;;;;6221545;22;20018;-87
2023/08/19 07:47:08;;;;;;;0.00;0.00;;;;;;;;;;6246436;22;20011;-87
2023/08/19 07:49:34;;;;;;;0.10;0.10;;;;;;;;;;6222484;22;20387;-88
2023/08/19 07:52:15;;;;;;;0.22;0.22;;;;;;;;;;6221485;22;20358;-89
2023/08/19 07:54:41;;;;;;;0.20;0.20;;;;;;;;;;6246397;22;20019;-87
2023/08/19 07:57:07;;;;;;;0.10;0.10;;;;;;;;;;6221471;22;20015;-87
2023/08/19 07:59:34;;;;;;;0.05;0.05;;;;;;;;;;6272776;22;20016;-90
2023/08/19 08:02:01;;;;;;;0.10;0.10;;;;;;;;;;6220029;22;20023;-86
2023/08/19 08:10:53;;;;;;;0.10;0.10;;;;;;;;;;6246384;22;20022;-88
2023/08/19 08:13:19;;;;;;;0.10;0.10;;;;;;;;;;6220732;22;20327;-89
2023/08/19 08:15:45;;;;;;;0.10;0.10;;;;;;;;;;6220996;22;20016;-87
2023/08/19 08:18:11;;;;;;;0.05;0.05;;;;;;;;;;6221442;22;20056;-87
2023/08/19 08:20:38;;;;;;;0.10;0.10;;;;;;;;;;6221567;22;20012;-88
2023/08/19 08:23:04;;;;;;;0.10;0.10;;;;;;;;;;6220698;22;20016;-89
2023/08/19 08:25:30;;;;;;;0.00;0.00;;;;;;;;;;6220895;22;20034;-87
2023/08/19 08:28:14;;;;;;;0.10;0.10;;;;;;;;;;6220784;22;20391;-89
2023/08/19 08:30:40;;;;;;;0.10;0.10;;;;;;;;;;6222381;22;20012;-86
2023/08/19 08:33:08;;;;;;;0.05;0.05;;;;;;;;;;6246190;22;20195;-87
2023/08/19 08:38:28;;;;;;;0.10;0.10;;;;;;;;;;6250282;22;20027;-86
2023/08/19 08:40:54;;;;;;;0.00;0.00;;;;;;;;;;6226298;22;20438;-89
2023/08/19 08:43:21;;;;;;;0.22;0.22;;;;;;;;;;6247305;22;20100;-88
2023/08/19 08:45:48;;;;;;;0.10;0.10;;;;;;;;;;6196270;22;20023;-89
2023/08/19 08:48:16;;;;;;;0.00;0.00;;;;;;;;;;6221243;22;20011;-87
2023/08/19 08:50:42;;;;;;;0.05;0.05;;;;;;;;;;6221982;22;20011;-87
2023/08/19 08:53:09;;;;;;;0.10;0.10;;;;;;;;;;6196564;22;20016;-87
2023/08/19 08:55:35;;;;;;;0.00;0.00;;;;;;;;;;6221451;22;20016;-88
2023/08/19 08:58:01;;;;;;;0.10;0.10;;;;;;;;;;6221436;22;20086;-87
2023/08/19 09:00:27;;;;;;;0.10;0.10;;;;;;;;;;6221009;22;20051;-86
2023/08/19 09:02:54;;;;;;;0.00;0.00;;;;;;;;;;6221086;22;20346;-88
2023/08/19 09:05:23;;;;;;;0.00;0.00;;;;;;;;;;6222332;22;20016;-89
2023/08/19 09:07:52;;;;;;;0.10;0.10;;;;;;;;;;6222186;22;20023;-88
2023/08/19 09:10:20;;;;;;;0.00;0.00;;;;;;;;;;6221639;22;20091;-88
2023/08/19 09:12:48;;;;;;;0.08;0.08;;;;;;;;;;6221202;22;20020;-86
2023/08/19 09:15:16;;;;;;;0.00;0.00;;;;;;;;;;6220647;22;20016;-88
2023/08/19 09:17:42;;;;;;;0.00;0.00;;;;;;;;;;6246607;22;20027;-88
2023/08/19 09:20:09;;;;;;;0.08;0.08;;;;;;;;;;6246722;22;20019;-87
2023/08/19 09:22:38;;;;;;;0.00;0.00;;;;;;;;;;6220617;22;20015;-85
2023/08/19 09:25:08;;;;;;;0.00;0.00;;;;;;;;;;6221030;22;20020;-88
2023/08/19 09:27:34;;;;;;;0.00;0.00;;;;;;;;;;6196635;22;20020;-88
2023/08/19 09:30:37;;;;;;;0.03;0.03;;;;;;;;;;6221071;22;20020;-88
2023/08/19 09:33:03;;;;;;;0.10;0.10;;;;;;;;;;6220709;22;20026;-88
2023/08/19 09:35:38;;;;;;;0.00;0.00;;;;;;;;;;6220430;22;20020;-88
2023/08/19 09:38:04;;;;;;;;;;;;;;;;;;6221520;22;20099;-87
2023/08/19 09:40:30;;;;;;;0.10;0.10;;;;;;;;;;6246065;22;20338;-88
2023/08/19 09:42:58;;;;;;;0.00;0.00;;;;;;;;;;6246356;22;20096;-88
2023/08/19 09:45:28;;;;;;;0.00;0.00;;;;;;;;;;6220937;22;20048;-87
2023/08/19 09:47:55;;;;;;;0.10;0.10;;;;;;;;;;6220942;22;20461;-87
2023/08/19 09:50:22;;;;;;;0.03;0.03;;;;;;;;;;6245905;22;20012;-87
2023/08/19 09:52:58;;;;;;;0.03;0.03;;;;;;;;;;6220059;22;20015;-88
2023/08/19 09:55:29;;;;;;;0.10;0.10;;;;;;;;;;6220388;22;20083;-88
2023/08/19 09:57:56;;;;;;;0.00;0.00;;;;;;;;;;6220307;22;20016;-88
2023/08/19 10:00:22;;;;;;;0.08;0.08;;;;;;;;;;6220450;22;20068;-85
2023/08/19 10:02:48;;;;;;;0.05;0.05;;;;;;;;;;6245584;22;20023;-88
2023/08/19 10:05:16;;;;;;;0.00;0.00;;;;;;;;;;6220745;22;20047;-88
2023/08/19 10:08:05;;;;;;;0.00;0.00;;;;;;;;;;6220143;22;20073;-87
2023/08/19 10:10:31;;;;;;;0.03;0.03;;;;;;;;;;6220455;22;20466;-91
2023/08/19 10:12:58;;;;;;;0.20;0.20;;;;;;;;;;6220723;22;20012;-89
2023/08/19 10:15:26;;;;;;;0.00;0.00;;;;;;;;;;6246116;22;20090;-87
2023/08/19 10:18:07;;;;;;;0.05;0.05;;;;;;;;;;6220472;22;20033;-88
2023/08/19 10:20:34;;;;;;;0.03;0.03;;;;;;;;;;6194808;22;20023;-87
2023/08/19 10:26:24;;;;;;;0.00;0.00;;;;;;;;;;6284474;22;20088;-87
2023/08/19 10:29:23;;;;;;;0.10;0.10;;;;;;;;;;6220105;22;20035;-87
2023/08/19 10:31:49;;;;;;;0.20;0.20;;;;;;;;;;6220839;22;20020;-87
2023/08/19 10:34:18;;;;;;;0.00;0.00;;;;;;;;;;6221219;22;20401;-86
2023/08/19 10:36:44;;;;;;;0.00;0.00;;;;;;;;;;6221195;22;20015;-87
2023/08/19 10:39:17;;;;;;;0.10;0.10;;;;;;;;;;6220835;22;20376;-88
2023/08/19 10:41:43;;;;;;;0.00;0.00;;;;;;;;;;6221269;22;20026;-87
2023/08/19 10:44:09;;;;;;;0.10;0.10;;;;;;;;;;6224069;22;20012;-87
2023/08/19 10:46:38;;;;;;;0.00;0.00;;;;;;;;;;6256499;22;20047;-88
2023/08/19 10:49:06;;;;;;;0.28;0.28;;;;;;;;;;6258779;22;20012;-88
2023/08/19 10:51:54;;;;;;;0.00;0.00;;;;;;;;;;6253076;22;20023;-87
2023/08/19 10:54:41;;;;;;;0.10;0.10;;;;;;;;;;6246924;22;20450;-88
2023/08/19 10:57:17;;;;;;;0.00;0.00;;;;;;;;;;6222029;22;20016;-88
2023/08/19 10:59:48;;;;;;;0.03;0.03;;;;;;;;;;6221737;22;20494;-86
2023/08/19 11:02:14;;;;;;;0.10;0.10;;;;;;;;;;6221372;22;20020;-87
2023/08/19 11:04:42;;;;;;;0.10;0.10;;;;;;;;;;6221805;22;20012;-89
2023/08/19 11:07:08;;;;;;;0.00;0.00;;;;;;;;;;6222275;22;20016;-88
2023/08/19 11:09:35;;;;;;;0.10;0.10;;;;;;;;;;6222154;22;20016;-88
2023/08/19 11:12:02;;;;;;;1.35;1.25;;;;;;;;;;6216093;22;20489;-88
2023/08/19 11:14:29;;;;;;;0.00;0.00;;;;;;;;;;6217176;22;20021;-88
2023/08/19 11:16:56;;;;;;;0.05;0.05;;;;;;;;;;6216508;22;20016;-87
2023/08/19 11:19:23;;;;;;;0.10;0.10;;;;;;;;;;6241756;22;20016;-87
2023/08/19 11:21:50;;;;;;;0.10;0.10;;;;;;;;;;6241093;22;20092;-86
2023/08/19 11:24:17;;;;;;;0.10;0.10;;;;;;;;;;6241076;22;20092;-88
2023/08/19 11:26:44;;;;;;;0.00;0.00;;;;;;;;;;6215750;22;20072;-86
2023/08/19 11:29:11;;;;;;;0.00;0.00;;;;;;;;;;6215643;22;20016;-88
2023/08/19 11:31:38;;;;;;;0.10;0.10;;;;;;;;;;6240877;22;20016;-87
2023/08/19 11:34:08;;;;;;;0.10;0.10;;;;;;;;;;6215748;22;20117;-87
2023/08/19 11:36:35;;;;;;;0.08;0.08;;;;;;;;;;6241037;22;20482;-86
2023/08/19 11:39:04;;;;;;;0.00;0.00;;;;;;;;;;6240712;22;20474;-87
2023/08/19 11:41:30;;;;;;;0.00;0.00;;;;;;;;;;6239775;22;20320;-85
2023/08/19 11:43:57;;;;;;;0.00;0.00;;;;;;;;;;6215937;22;20019;-88
2023/08/19 11:46:23;;;;;;;0.00;0.00;;;;;;;;;;6216594;22;20061;-87
2023/08/19 11:48:49;;;;;;;0.00;0.00;;;;;;;;;;6216563;22;20385;-90
2023/08/19 11:51:15;;;;;;;0.00;0.00;;;;;;;;;;6215819;22;20016;-88
2023/08/19 11:53:41;;;;;;;0.03;0.03;;;;;;;;;;6191209;22;20022;-89
2023/08/19 11:56:08;;;;;;;0.00;0.00;;;;;;;;;;6191456;23;20454;-88
2023/08/19 11:58:41;;;;;;;0.00;0.00;;;;;;;;;;6216191;22;20027;-85
2023/08/19 12:01:07;;;;;;;0.00;0.00;;;;;;;;;;6241134;23;20016;-86
2023/08/19 12:03:33;;;;;;;0.08;0.08;;;;;;;;;;6215399;22;20023;-87
2023/08/19 12:05:59;;;;;;;0.00;0.00;;;;;;;;;;6215923;22;20070;-89
2023/08/19 12:08:32;;;;;;;0.00;0.00;;;;;;;;;;6215571;22;20069;-87
2023/08/19 12:10:58;;;;;;;0.10;0.10;;;;;;;;;;6215738;22;20019;-87
2023/08/19 12:13:27;;;;;;;0.10;0.10;;;;;;;;;;6215360;23;20087;-87
2023/08/19 12:15:53;;;;;;;0.00;0.00;;;;;;;;;;6216026;22;20034;-87
2023/08/19 12:18:19;;;;;;;0.10;0.10;;;;;;;;;;6215972;22;20462;-88
2023/08/19 12:20:45;;;;;;;0.00;0.00;;;;;;;;;;6240825;22;20012;-86
2023/08/19 12:23:12;;;;;;;0.10;0.10;;;;;;;;;;6240505;22;20012;-85
2023/08/19 12:25:48;;;;;;;0.08;0.08;;;;;;;;;;6216342;22;20016;-87
2023/08/19 12:28:16;;;;;;;0.00;0.00;;;;;;;;;;6215942;22;20327;-88
2023/08/19 12:30:42;;;;;;;0.00;0.00;;;;;;;;;;6191093;22;20039;-86
2023/08/19 12:33:08;;;;;;;0.00;0.00;;;;;;;;;;6215531;22;20150;-88
2023/08/19 12:35:35;;;;;;;0.08;0.08;;;;;;;;;;6216329;23;20016;-88
2023/08/19 12:38:02;;;;;;;0.10;0.10;;;;;;;;;;6241232;22;20438;-88
2023/08/19 12:40:28;;;;;;;0.10;0.10;;;;;;;;;;6215891;22;20016;-87
2023/08/19 12:42:55;;;;;;;0.20;0.20;;;;;;;;;;6190738;22;20395;-86
2023/08/19 12:45:21;;;;;;;0.03;0.03;;;;;;;;;;6215563;22;20035;-86
2023/08/19 12:47:47;;;;;;;0.10;0.10;;;;;;;;;;6215576;22;20091;-88
2023/08/19 12:50:18;;;;;;;0.00;0.00;;;;;;;;;;6217454;22;20091;-88
2023/08/19 12:52:45;;;;;;;0.05;0.05;;;;;;;;;;6215543;22;20023;-87
2023/08/19 12:55:13;;;;;;;0.08;0.08;;;;;;;;;;6216654;22;20095;-87
2023/08/19 12:57:42;;;;;;;0.10;0.10;;;;;;;;;;6216326;22;20020;-88
2023/08/19 13:00:12;;;;;;;0.00;0.00;;;;;;;;;;6216255;22;20438;-86
2023/08/19 13:02:41;;;;;;;0.13;0.13;;;;;;;;;;6241377;22;20012;-87
2023/08/19 13:05:08;;;;;;;0.10;0.10;;;;;;;;;;6216028;22;20052;-87
2023/08/19 13:07:34;;;;;;;0.20;0.20;;;;;;;;;;6216095;22;20023;-87
2023/08/19 13:10:00;;;;;;;0.08;0.08;;;;;;;;;;6216087;22;20069;-86
2023/08/19 13:12:26;;;;;;;0.00;0.00;;;;;;;;;;6215445;22;20019;-86
2023/08/19 13:14:52;;;;;;;0.10;0.10;;;;;;;;;;6241053;22;20019;-87
2023/08/19 13:17:22;;;;;;;0.00;0.00;;;;;;;;;;6216723;22;20020;-88
2023/08/19 13:19:54;;;;;;;0.00;0.00;;;;;;;;;;6241234;22;20034;-87
2023/08/19 13:22:21;;;;;;;0.10;0.10;;;;;;;;;;6216011;23;20427;-86
2023/08/19 13:24:48;;;;;;;0.15;0.15;;;;;;;;;;6216207;22;20095;-89
2023/08/19 13:27:19;;;;;;;0.08;0.08;;;;;;;;;;6215631;22;20012;-87
2023/08/19 13:29:46;;;;;;;0.08;0.08;;;;;;;;;;6215433;23;20024;-86
2023/08/19 13:32:12;;;;;;;0.00;0.00;;;;;;;;;;6190421;23;20510;-87
2023/08/19 13:34:39;;;;;;;0.10;0.10;;;;;;;;;;6215528;22;20090;-88
2023/08/19 13:37:05;;;;;;;0.00;0.00;;;;;;;;;;6215535;22;20342;-87
2023/08/19 13:39:32;;;;;;;0.00;0.00;;;;;;;;;;6215631;22;20017;-87
2023/08/19 13:41:58;;;;;;;0.08;0.08;;;;;;;;;;6215282;22;20141;-87
2023/08/19 13:44:25;;;;;;;0.08;0.08;;;;;;;;;;6215696;22;20027;-88
2023/08/19 13:46:56;;;;;;;0.00;0.00;;;;;;;;;;6216633;22;20019;-86
2023/08/19 13:49:22;;;;;;;0.08;0.08;;;;;;;;;;6216924;22;20095;-88
2023/08/19 13:51:50;;;;;;;0.10;0.10;;;;;;;;;;6216462;22;20388;-87
2023/08/19 13:54:18;;;;;;;0.10;0.10;;;;;;;;;;6216622;22;20016;-88
2023/08/19 13:56:47;;;;;;;0.10;0.10;;;;;;;;;;6216222;22;20020;-88
2023/08/19 13:59:15;;;;;;;0.10;0.10;;;;;;;;;;6216328;22;20163;-87
2023/08/19 14:01:41;;;;;;;0.10;0.10;;;;;;;;;;6216016;22;20012;-89
2023/08/19 14:04:07;;;;;;;0.00;0.00;;;;;;;;;;6216196;22;20023;-88
2023/08/19 14:06:35;;;;;;;0.10;0.10;;;;;;;;;;6241793;22;20342;-88
2023/08/19 14:09:01;;;;;;;0.10;0.10;;;;;;;;;;6215594;22;20020;-88
2023/08/19 14:11:27;;;;;;;0.10;0.10;;;;;;;;;;6233014;22;20020;-89
2023/08/19 14:13:53;;;;;;;0.10;0.10;;;;;;;;;;6215969;23;20350;-87
2023/08/19 14:16:19;;;;;;;0.10;0.10;;;;;;;;;;6191289;22;20108;-87
2023/08/19 14:18:45;;;;;;;0.00;0.00;;;;;;;;;;6190797;22;20076;-88
2023/08/19 14:21:11;;;;;;;0.00;0.00;;;;;;;;;;6191716;23;20019;-87
2023/08/19 14:23:38;;;;;;;0.10;0.10;;;;;;;;;;6191672;22;20016;-88
2023/08/19 14:26:04;;;;;;;0.10;0.10;;;;;;;;;;6191724;22;20327;-88
2023/08/19 14:28:31;;;;;;;0.10;0.10;;;;;;;;;;6191689;22;20016;-89
2023/08/19 14:30:57;;;;;;;0.10;0.10;;;;;;;;;;6191399;22;20016;-87
2023/08/19 14:33:24;;;;;;;0.00;0.00;;;;;;;;;;6190744;23;20410;-88
2023/08/19 14:35:50;;;;;;;0.10;0.10;;;;;;;;;;6190793;23;20012;-86
2023/08/19 14:38:16;;;;;;;0.00;0.00;;;;;;;;;;6214907;23;20020;-88
2023/08/19 14:40:43;;;;;;;0.03;0.03;;;;;;;;;;6191397;23;20451;-88
2023/08/19 14:43:09;;;;;;;0.10;0.10;;;;;;;;;;6190974;23;20023;-87
2023/08/19 14:45:36;;;;;;;0.20;0.20;;;;;;;;;;6190743;23;20020;-88
2023/08/19 14:48:02;;;;;;;0.05;0.05;;;;;;;;;;6191189;22;20016;-87
2023/08/19 14:50:28;;;;;;;0.00;0.00;;;;;;;;;;6215336;23;20052;-86
2023/08/19 14:52:57;;;;;;;0.00;0.00;;;;;;;;;;6215680;23;20510;-86
2023/08/19 14:55:23;;;;;;;0.00;0.00;;;;;;;;;;6190118;23;20023;-87
2023/08/19 14:57:50;;;;;;;0.10;0.10;;;;;;;;;;6190299;23;20343;-88
2023/08/19 15:00:16;;;;;;;0.10;0.10;;;;;;;;;;6202308;23;20043;-87
2023/08/19 15:02:44;;;;;;;0.10;0.10;;;;;;;;;;6209574;22;20012;-85
2023/08/19 15:05:12;;;;;;;0.08;0.08;;;;;;;;;;6235223;23;20020;-86
2023/08/19 15:07:39;;;;;;;0.00;0.00;;;;;;;;;;6234394;23;20020;-86